Pagina principale
METAR-TAF:

METAR-TAF

Aeroporti :

Aeroporto Internazionale Chhatrapati Shivaji

Bombay, India

latitudine: 19-07N, longitudine: 072-51E, altezza: 8 m

Osservazione

Il bollettino è stato emesso 43 minuti fa, alle 04:00 UTC
Vento 3 kt da est
Temperature 30°C
Umidità 59%
Pressione 1015 hPa
Visibilità: 2100 m
Poco nuvoloso ad un'altezza di 10000 ft
fumo

METAR: VABB 210400Z 08003KT 2100 FU FEW100 30/21 Q1015 NOSIG

Ora: 10:13 (04:43 UTC)

Previsione

Il bollettino è stato emesso 2 ore e 43 minuti fa, alle 02:00 UTC
Previsione valida dal 21 alle 03 UTC al 21 alle 12 UTC
Vento 5 kt da est
Visibilità: 1500 m
Poco nuvoloso ad un'altezza di 10000 ft
foschia, foschia
Evoluzione graduale
dal 21 alle 07 UTC al 21 alle 09 UTC
Vento 8 kt da ovest
Visibilità: 3000 m
fumo

TAF: VABB 210200Z 2103/2112 09005KT 1500 BR HZ FEW100 BECMG 2107/2109 28008KT 3000 FU

Osservazioni e previsioni meteorologiche di più di 4000 aeroporti (messaggi METAR e TAF).

Le stazioni disponibili sono rappresentate dai dischi gialli e rossi sulla carta.

Puntare il mouse per vedere il nome della stazione.

Clicca sopra per visualizzare le osservazioni e previsioni meteorologiche.

Per cambiare la mappa : fare clic sui pulsanti verdi con una croce nera per ingrandire, il pulsante verde con un trattino per diminuire, o sulla freccia verde per le mappe adiacenti.


METAR-TAF: